Latest Coastal Weather Observations for Gabo Island (VIC)

IDN60701

Issued at 3:45 am EST Saturday 23 August 2014 (issued every 10 minutes, with the page automatically refreshed every 10 minutes)

About coastal observations | Map of coastal stations | Coastal observations for NSW | Marine services | Other Formats
Station Details ID: 084016 Name: GABO ISLAND LIGHTHOUSE Lat: -37.57 Lon: 149.92 Height: 15.2 m
Data from the previous 72 hours. | See also: Recent months at Gabo Island (VIC)
Date/Time
EST
Temp

°C
Wind Pressure Rain
since 9am
mm
Weather Cloud Vis
km
Sea
Height
m
Swell
Dir
 
Speed
knots
Gust
knots
hPa Trend Height
m
Period
s
Dir
23/03:30am 12.6 N 6 8 1030.5 - 3.6 - - - - - - -
23/03:00am 12.9 NNE 9 13 1030.8 - 3.6 - - - - - - -
23/02:30am 13.2 NNE 11 16 1030.9 - 2.6 - - - - - - -
23/02:00am 13.1 NNE 8 12 1031.1 - 1.4 - - - - - - -
23/01:30am 12.8 NNE 12 16 1031.3 - 0.2 - - - - - - -
23/01:00am 12.8 NNE 20 26 1031.3 - 0.0 - - - - - - -
23/12:55am 12.9 NNE 21 26 1031.3 - 0.0 - - - - - - -
23/12:30am 14.1 NE 17 20 1031.3 - 0.0 - - - - - - -
23/12:00am 14.1 NE 17 19 1031.4 - 0.0 - - - - - - -
 
Date/Time
EST
Temp

°C
Wind Pressure Rain
since 9am
mm
Weather Cloud Vis
km
Sea
Height
m
Swell
Dir
 
Speed
knots
Gust
knots
hPa Trend Height
m
Period
s
Dir
22/11:30pm 14.4 NE 17 21 1031.5 - 0.0 - - - - - - -
22/11:00pm 14.1 NE 16 20 1031.7 - 0.0 - - - - - - -
22/10:30pm 14.1 NNE 15 19 1031.8 - 0.0 - - - - - - -
22/10:00pm 14.7 NE 16 19 1031.9 - 0.0 - - - - - - -
22/09:30pm 14.4 NE 17 19 1032.0 - 0.0 - - - - - - -
22/09:00pm 14.2 NNE 15 19 1032.0 - 0.0 - - - - - - -
22/08:30pm 14.4 NNE 16 20 1031.9 - 0.0 - - - - - - -
22/08:00pm 14.4 ENE 18 21 1031.8 - 0.0 - - - - - - -
22/07:30pm 14.5 NE 16 18 1031.8 - 0.0 - - - - - - -
22/07:00pm 14.4 NE 17 20 1031.7 - 0.0 - - - - - - -
22/06:30pm 14.7 NE 18 20 1031.6 - 0.0 - - - - - - -
22/06:00pm 14.6 NE 19 22 1031.2 - 0.0 - - - - - - -
22/05:30pm 14.5 NE 18 21 1031.1 - 0.0 - - - - - - -
22/05:00pm 14.8 NE 17 19 1030.9 - 0.0 - - - - - - -
22/04:30pm 15.1 NE 16 19 1030.8 - 0.0 - - - - - - -
22/04:00pm 15.3 NE 15 17 1030.8 - 0.0 - - - - - - -
22/03:30pm 15.4 NE 15 17 1030.7 - 0.0 - - - - - - -
22/03:00pm 15.7 NE 15 17 1031.0 - 0.0 - - - - - - -
22/02:30pm 15.5 NE 13 18 1031.0 - 0.0 - - - - - - -
22/02:00pm 15.7 NE 14 16 1031.1 - 0.0 - - - - - - -
22/01:30pm 16.0 NE 13 15 1031.3 - 0.0 - - - - - - -
22/01:00pm 15.9 NE 13 15 1031.7 - 0.0 - - - - - - -
22/12:30pm 15.8 ENE 11 12 1032.1 - 0.0 - - - - - - -
22/12:00pm 15.6 ENE 10 11 1032.6 - 0.0 - - - - - - -
22/11:30am 15.4 ENE 8 9 1032.9 - 0.0 - - - - - - -
22/11:00am 14.7 ENE 4 5 1033.2 - 0.0 - - - - - - -
22/10:30am 14.5 SSE 3 4 1033.4 - 0.0 - - - - - - -
22/10:00am 13.5 WSW 4 6 1033.5 - 0.0 - - - - - - -
22/09:30am 13.1 W 5 6 1033.4 - 0.0 - - - - - - -
22/09:00am 12.3 WSW 5 6 1033.6 - 1.2 - - - - - - -
22/08:30am 11.8 WSW 3 6 1033.4 - 1.2 - - - - - - -
22/08:00am 11.7 WNW 3 4 1033.2 - 1.2 - - - - - - -
22/07:30am 10.8 NW 4 5 1033.0 - 1.2 - - - - - - -
22/07:00am 9.8 WNW 6 7 1032.5 - 1.2 - - - - - - -
22/06:30am 9.5 WNW 5 7 1032.2 - 1.2 - - - - - - -
22/06:00am 9.1 WNW 6 7 1032.1 - 1.2 - - - - - - -
22/05:30am 8.8 W 7 8 1032.0 - 1.2 - - - - - - -
22/05:00am 9.3 WNW 7 9 1031.9 - 1.2 - - - - - - -
22/04:30am 9.3 WNW 7 7 1031.8 - 1.0 - - - - - - -
22/04:00am 9.3 WNW 7 8 1031.6 - 1.0 - - - - - - -
22/03:30am 9.9 W 5 7 1031.5 - 1.0 - - - - - - -
22/03:00am 10.8 WNW 3 4 1031.5 - 1.0 Fine Mostly clear 40 - 1.0 - SE
22/02:30am 11.2 CALM 0 3 1031.5 - 1.0 - - - - - - -
22/02:00am 11.3 WNW 4 5 1031.8 - 1.0 - - - - - - -
22/01:30am 11.1 W 4 5 1032.1 - 1.0 - - - - - - -
22/01:00am 11.2 W 4 5 1032.1 - 1.0 - - - - - - -
22/12:30am 11.7 S 3 6 1032.4 - 0.4 - - - - - - -
22/12:00am 10.7 WNW 5 6 1032.3 - 0.2 - - - - - - -
 
Date/Time
EST
Temp

°C
Wind Pressure Rain
since 9am
mm
Weather Cloud Vis
km
Sea
Height
m
Swell
Dir
 
Speed
knots
Gust
knots
hPa Trend Height
m
Period
s
Dir
21/11:30pm 11.3 WNW 5 6 1032.2 - 0.2 - - - - - - -
21/11:00pm 11.1 N 6 6 1032.2 - 0.2 - - - - - - -
21/10:30pm 11.2 N 7 7 1032.3 - 0.2 - - - - - - -
21/10:00pm 11.7 N 5 6 1032.3 - 0.2 - - - - - - -
21/09:30pm 11.8 N 6 7 1032.3 - 0.2 - - - - - - -
21/09:00pm 11.6 N 7 8 1032.3 - 0.2 - - - - - - -
21/08:30pm 11.3 N 7 8 1032.0 - 0.2 - - - - - - -
21/08:00pm 12.2 N 6 7 1031.9 - 0.2 - - - - - - -
21/07:30pm 13.4 NE 15 17 1031.6 - 0.0 - - - - - - -
21/07:00pm 14.4 E 9 12 1031.4 - 0.0 - - - - - - -
21/06:30pm 14.4 E 8 10 1031.2 - 0.0 - - - - - - -
21/06:00pm 14.4 E 10 12 1030.9 - 0.0 - - - - - - -
21/05:30pm 14.4 E 9 11 1030.6 - 0.0 - - - - - - -
21/05:00pm 14.7 E 9 11 1030.3 - 0.0 - - - - - - -
21/04:30pm 15.0 E 7 9 1030.2 - 0.0 - - - - - - -
21/04:00pm 15.3 SSE 4 5 1030.1 - 0.0 - - - - - - -
21/03:30pm 15.3 S 5 6 1029.9 - 0.0 - - - - - - -
21/03:00pm 15.1 S 6 7 1030.0 - 0.0 Fine Partly cloudy 40 - 1.0 - SE
21/02:30pm 15.2 S 7 9 1030.0 - 0.0 - - - - - - -
21/02:00pm 15.4 S 9 11 1030.1 - 0.0 - - - - - - -
21/01:30pm 15.4 SSW 8 9 1030.3 - 0.0 - - - - - - -
21/01:00pm 14.5 SSW 9 10 1030.3 - 0.0 - - - - - - -
21/12:30pm 14.5 SW 7 8 1030.5 - 0.0 - - - - - - -
21/12:00pm 14.0 SW 7 8 1031.0 - 0.0 - - - - - - -
21/11:30am 13.8 WSW 8 9 1031.2 - 0.0 - - - - - - -
21/11:00am 13.6 WSW 8 10 1031.5 - 0.0 - - - - - - -
21/10:30am 13.2 W 9 11 1031.5 - 0.0 - - - - - - -
21/10:00am 12.6 W 9 11 1031.5 - 0.0 - - - - - - -
21/09:30am 11.6 WNW 8 10 1031.4 - 0.0 - - - - - - -
21/09:00am 11.2 - 8 11 1031.4 - 0.8 Distant precip. Mostly cloudy 40 - 1.0 - SE
21/08:30am 10.2 WNW 10 12 1031.2 - 0.8 - - - - - - -
21/08:00am 10.4 W 10 12 1031.0 - 0.8 - - - - - - -
21/07:30am 10.1 W 8 10 1030.7 - 0.8 - - - - - - -
21/07:00am 9.7 NW 8 11 1030.5 - 0.6 - - - - - - -
21/06:30am 9.8 WNW 9 11 1030.3 - 0.4 - - - - - - -
21/06:00am 9.7 WNW 10 12 1029.8 - 0.4 - - - - - - -
21/05:30am 10.0 WNW 10 13 1029.5 - 0.0 - - - - - - -
21/05:00am 9.9 WNW 11 13 1029.3 - 0.0 - - - - - - -
21/04:30am 10.1 WNW 10 11 1029.1 - 0.0 - - - - - - -
21/04:00am 10.0 WNW 10 13 1029.1 - 0.0 - - - - - - -
21/03:30am 10.0 WNW 10 12 1028.8 - 0.0 - - - - - - -
21/03:00am 10.0 - 10 13 1028.6 - 0.0 Fine Partly cloudy 40 - 1.0 - SE
21/02:30am 10.2 WNW 9 11 1028.7 - 0.0 - - - - - - -
21/02:00am 10.4 W 9 11 1028.8 - 0.0 - - - - - - -
21/01:30am 10.2 WNW 10 12 1028.8 - 0.0 - - - - - - -
21/01:00am 10.3 WNW 10 13 1028.8 - 0.0 - - - - - - -
21/12:30am 10.2 WNW 11 14 1028.9 - 0.0 - - - - - - -
21/12:00am 10.2 WNW 10 13 1028.8 - 0.0 - - - - - - -
 
Date/Time
EST
Temp

°C
Wind Pressure Rain
since 9am
mm
Weather Cloud Vis
km
Sea
Height
m
Swell
Dir
 
Speed
knots
Gust
knots
hPa Trend Height
m
Period
s
Dir
20/11:30pm 10.1 WNW 9 13 1028.9 - 0.0 - - - - - - -
20/11:00pm 10.1 WNW 10 12 1028.7 - 0.0 - - - - - - -
20/10:30pm 10.5 WNW 10 14 1028.6 - 0.0 - - - - - - -
20/10:00pm 10.7 WNW 9 11 1028.6 - 0.0 - - - - - - -
20/09:30pm 10.8 W 8 11 1028.8 - 0.0 - - - - - - -
20/09:00pm 11.7 - 10 11 1028.7 - 0.0 Fine Clear 40 - 1.0 - SE
20/08:30pm 12.2 WSW 11 13 1028.6 - 0.0 - - - - - - -
20/08:00pm 12.5 WSW 12 14 1028.4 - 0.0 - - - - - - -
20/07:30pm 12.7 SW 12 15 1028.2 - 0.0 - - - - - - -
20/07:00pm 12.8 SW 11 14 1028.1 - 0.0 - - - - - - -
20/06:30pm 12.7 SW 15 18 1027.7 - 0.0 - - - - - - -
20/06:00pm 12.6 SW 14 17 1027.4 - 0.0 - - - - - - -
20/05:30pm 11.9 SSE 11 18 1027.2 - 0.0 - - - - - - -
20/05:00pm 11.8 S 16 19 1026.9 - 0.0 - - - - - - -
20/04:30pm 12.5 SSW 18 23 1026.6 - 0.0 - - - - - - -
20/04:00pm 12.9 SSW 18 23 1026.3 - 0.0 - - - - - - -
20/03:30pm 12.8 SW 20 22 1026.0 - 0.0 - - - - - - -
20/03:00pm 13.1 - 20 24 1025.6 - 0.0 Fine Mostly cloudy 40 - 1.0 - SE
20/02:30pm 13.3 SW 19 23 1025.5 - 0.0 - - - - - - -
20/02:00pm 13.6 SW 17 20 1025.3 - 0.0 - - - - - - -
20/01:30pm 13.8 SW 14 18 1025.3 - 0.0 - - - - - - -
20/01:00pm 13.9 WSW 14 17 1025.5 - 0.0 - - - - - - -
20/12:30pm 13.9 WSW 14 19 1025.6 - 0.0 - - - - - - -
20/12:00pm 14.0 WSW 15 19 1025.6 - 0.0 - - - - - - -
20/11:30am 14.6 WSW 14 17 1026.0 - 0.0 - - - - - - -
20/11:00am 13.8 W 13 16 1026.2 - 0.0 - - - - - - -
20/10:30am 13.1 W 14 17 1026.3 - 0.0 - - - - - - -
20/10:00am 13.0 W 13 16 1026.1 - 0.0 - - - - - - -
20/09:30am 12.0 W 15 18 1025.9 - 0.0 - - - - - - -
20/09:00am 12.3 W 17 20 1025.7 - 0.0 Fine Mostly cloudy 40 2 1.5 10 SE
20/08:30am 11.7 W 17 20 1025.6 - 0.0 - - - - - - -
20/08:00am 11.4 W 17 21 1025.4 - 0.0 - - - - - - -
20/07:30am 11.3 W 17 21 1024.9 - 0.0 - - - - - - -
20/07:00am 11.3 W 18 23 1024.7 - 0.0 - - - - - - -
20/06:30am 11.4 W 18 22 1024.4 - 0.0 - - - - - - -
20/06:00am 11.0 - 14 18 1024.2 - 0.0 - - - - - - -
20/05:30am 11.2 W 14 18 1024.0 - 0.0 - - - - - - -
20/05:00am 11.2 W 14 17 1024.0 - 0.0 - - - - - - -
20/04:30am 11.2 W 15 18 1023.9 - 0.0 - - - - - - -
20/04:00am 11.1 W 15 19 1023.7 - 0.0 - - - - - - -

Other Formats:

Comma delimited format used in spreadsheet applications
http://www.bom.gov.au/fwo/IDN60701/IDN60701.94933.axf

JavaScript Object Notation format (JSON) in row-major order
http://www.bom.gov.au/fwo/IDN60701/IDN60701.94933.json